sensor_id;sensor_type;location;lat;lon;timestamp;temperature;humidity
15546;DHT22;7874;48.870;11.074;2023-06-10T04:27:59;15.90;99.90
15546;DHT22;7874;48.870;11.074;2023-06-10T04:30:54;16.00;99.90
15546;DHT22;7874;48.870;11.074;2023-06-10T04:41:08;16.00;99.90
15546;DHT22;7874;48.870;11.074;2023-06-10T04:44:17;16.10;99.90
15546;DHT22;7874;48.870;11.074;2023-06-10T04:51:32;16.30;99.90
15546;DHT22;7874;48.870;11.074;2023-06-10T04:54:32;16.60;99.90
15546;DHT22;7874;48.870;11.074;2023-06-10T05:00:25;17.30;99.90
15546;DHT22;7874;48.870;11.074;2023-06-10T05:03:04;17.60;99.90
15546;DHT22;7874;48.870;11.074;2023-06-10T05:05:38;17.80;99.90
15546;DHT22;7874;48.870;11.074;2023-06-10T05:08:34;18.10;99.90
15546;DHT22;7874;48.870;11.074;2023-06-10T05:11:03;18.30;99.90
15546;DHT22;7874;48.870;11.074;2023-06-10T05:52:15;20.40;99.90
15546;DHT22;7874;48.870;11.074;2023-06-10T05:55:02;20.70;99.90
15546;DHT22;7874;48.870;11.074;2023-06-10T07:00:50;24.20;98.30
15546;DHT22;7874;48.870;11.074;2023-06-10T07:03:19;24.00;97.70
15546;DHT22;7874;48.870;11.074;2023-06-10T07:05:46;24.10;97.60
15546;DHT22;7874;48.870;11.074;2023-06-10T07:11:52;24.30;97.60
15546;DHT22;7874;48.870;11.074;2023-06-10T07:17:39;24.90;96.80
15546;DHT22;7874;48.870;11.074;2023-06-10T07:20:07;24.40;96.70
15546;DHT22;7874;48.870;11.074;2023-06-10T07:22:34;24.60;96.70
15546;DHT22;7874;48.870;11.074;2023-06-10T07:25:01;24.80;95.60
15546;DHT22;7874;48.870;11.074;2023-06-10T07:27:28;24.70;96.80
15546;DHT22;7874;48.870;11.074;2023-06-10T07:29:55;24.90;96.60
15546;DHT22;7874;48.870;11.074;2023-06-10T07:32:21;25.40;96.60
15546;DHT22;7874;48.870;11.074;2023-06-10T07:34:54;25.20;95.60
15546;DHT22;7874;48.870;11.074;2023-06-10T07:37:33;25.20;96.00
15546;DHT22;7874;48.870;11.074;2023-06-10T07:40:04;25.20;96.00
15546;DHT22;7874;48.870;11.074;2023-06-10T07:42:31;25.50;96.30
15546;DHT22;7874;48.870;11.074;2023-06-10T07:44:58;25.30;95.50
15546;DHT22;7874;48.870;11.074;2023-06-10T07:47:25;25.40;95.20
15546;DHT22;7874;48.870;11.074;2023-06-10T07:49:53;25.70;95.10
15546;DHT22;7874;48.870;11.074;2023-06-10T07:52:20;25.20;95.50
15546;DHT22;7874;48.870;11.074;2023-06-10T07:54:47;25.90;95.00
15546;DHT22;7874;48.870;11.074;2023-06-10T07:57:15;25.90;94.80
15546;DHT22;7874;48.870;11.074;2023-06-10T07:59:41;26.10;94.80
15546;DHT22;7874;48.870;11.074;2023-06-10T08:02:09;26.40;93.40
15546;DHT22;7874;48.870;11.074;2023-06-10T08:04:36;26.30;93.00
15546;DHT22;7874;48.870;11.074;2023-06-10T08:07:05;26.60;93.40
15546;DHT22;7874;48.870;11.074;2023-06-10T08:09:32;26.80;92.50
15546;DHT22;7874;48.870;11.074;2023-06-10T08:11:58;27.10;92.10
15546;DHT22;7874;48.870;11.074;2023-06-10T08:14:25;27.10;92.50
15546;DHT22;7874;48.870;11.074;2023-06-10T08:16:52;27.40;92.30
15546;DHT22;7874;48.870;11.074;2023-06-10T08:19:19;27.20;90.70
15546;DHT22;7874;48.870;11.074;2023-06-10T08:21:45;27.20;91.40
15546;DHT22;7874;48.870;11.074;2023-06-10T08:24:14;26.70;91.20
15546;DHT22;7874;48.870;11.074;2023-06-10T08:26:43;26.70;91.50
15546;DHT22;7874;48.870;11.074;2023-06-10T08:29:11;26.60;91.70
15546;DHT22;7874;48.870;11.074;2023-06-10T08:31:41;26.90;91.80
15546;DHT22;7874;48.870;11.074;2023-06-10T08:34:08;27.00;91.80
15546;DHT22;7874;48.870;11.074;2023-06-10T08:36:35;26.70;91.10
15546;DHT22;7874;48.870;11.074;2023-06-10T08:39:02;27.00;90.80
15546;DHT22;7874;48.870;11.074;2023-06-10T08:41:32;26.40;91.30
15546;DHT22;7874;48.870;11.074;2023-06-10T08:44:28;26.60;91.30
15546;DHT22;7874;48.870;11.074;2023-06-10T08:46:56;27.30;91.30
15546;DHT22;7874;48.870;11.074;2023-06-10T08:49:26;27.90;90.20
15546;DHT22;7874;48.870;11.074;2023-06-10T08:51:57;27.50;89.40
15546;DHT22;7874;48.870;11.074;2023-06-10T08:54:27;26.90;90.30
15546;DHT22;7874;48.870;11.074;2023-06-10T08:57:40;27.00;90.60
15546;DHT22;7874;48.870;11.074;2023-06-10T09:00:09;27.80;89.40
15546;DHT22;7874;48.870;11.074;2023-06-10T09:02:36;28.30;89.00
15546;DHT22;7874;48.870;11.074;2023-06-10T09:05:03;28.30;88.10
15546;DHT22;7874;48.870;11.074;2023-06-10T09:07:31;28.80;87.20
15546;DHT22;7874;48.870;11.074;2023-06-10T09:10:01;29.00;85.10
15546;DHT22;7874;48.870;11.074;2023-06-10T09:12:32;29.00;85.70
15546;DHT22;7874;48.870;11.074;2023-06-10T09:15:01;29.80;86.00
15546;DHT22;7874;48.870;11.074;2023-06-10T09:17:28;30.10;84.60
15546;DHT22;7874;48.870;11.074;2023-06-10T09:19:55;31.10;85.20
15546;DHT22;7874;48.870;11.074;2023-06-10T09:22:23;32.10;83.20
15546;DHT22;7874;48.870;11.074;2023-06-10T09:24:52;32.80;82.10
15546;DHT22;7874;48.870;11.074;2023-06-10T09:27:18;33.10;79.40
15546;DHT22;7874;48.870;11.074;2023-06-10T09:29:46;32.60;78.60
15546;DHT22;7874;48.870;11.074;2023-06-10T09:32:17;31.30;80.70
15546;DHT22;7874;48.870;11.074;2023-06-10T09:34:45;31.30;80.10
15546;DHT22;7874;48.870;11.074;2023-06-10T09:37:12;31.30;80.60
15546;DHT22;7874;48.870;11.074;2023-06-10T09:39:39;30.50;78.70
15546;DHT22;7874;48.870;11.074;2023-06-10T09:42:16;31.30;78.80
15546;DHT22;7874;48.870;11.074;2023-06-10T09:44:49;30.00;78.70
15546;DHT22;7874;48.870;11.074;2023-06-10T09:47:21;28.50;81.00
15546;DHT22;7874;48.870;11.074;2023-06-10T09:49:52;27.20;83.60
15546;DHT22;7874;48.870;11.074;2023-06-10T09:52:22;27.10;85.00
15546;DHT22;7874;48.870;11.074;2023-06-10T09:54:50;27.70;83.90
15546;DHT22;7874;48.870;11.074;2023-06-10T09:57:17;27.80;82.20
15546;DHT22;7874;48.870;11.074;2023-06-10T09:59:45;29.10;82.80
15546;DHT22;7874;48.870;11.074;2023-06-10T10:02:15;29.10;80.60
15546;DHT22;7874;48.870;11.074;2023-06-10T10:04:44;29.20;81.70
15546;DHT22;7874;48.870;11.074;2023-06-10T10:07:13;30.60;79.40
15546;DHT22;7874;48.870;11.074;2023-06-10T10:09:42;29.40;77.70
15546;DHT22;7874;48.870;11.074;2023-06-10T10:12:16;28.20;81.60
15546;DHT22;7874;48.870;11.074;2023-06-10T10:14:46;29.60;80.60
15546;DHT22;7874;48.870;11.074;2023-06-10T10:17:15;29.20;78.90
15546;DHT22;7874;48.870;11.074;2023-06-10T10:19:48;28.20;81.20
15546;DHT22;7874;48.870;11.074;2023-06-10T10:22:25;27.70;81.90
15546;DHT22;7874;48.870;11.074;2023-06-10T10:24:56;27.50;83.70
15546;DHT22;7874;48.870;11.074;2023-06-10T10:27:27;28.60;84.40
15546;DHT22;7874;48.870;11.074;2023-06-10T10:29:55;30.60;79.50
15546;DHT22;7874;48.870;11.074;2023-06-10T10:32:31;30.00;79.20
15546;DHT22;7874;48.870;11.074;2023-06-10T10:35:05;29.30;80.00
15546;DHT22;7874;48.870;11.074;2023-06-10T10:37:35;29.20;80.40
15546;DHT22;7874;48.870;11.074;2023-06-10T10:40:02;29.10;80.50
15546;DHT22;7874;48.870;11.074;2023-06-10T10:42:30;30.70;78.50
15546;DHT22;7874;48.870;11.074;2023-06-10T10:44:58;31.30;78.30
15546;DHT22;7874;48.870;11.074;2023-06-10T10:47:27;31.90;76.40
15546;DHT22;7874;48.870;11.074;2023-06-10T10:49:55;31.70;75.40
15546;DHT22;7874;48.870;11.074;2023-06-10T10:52:43;29.70;75.30
15546;DHT22;7874;48.870;11.074;2023-06-10T10:55:13;28.90;80.00
15546;DHT22;7874;48.870;11.074;2023-06-10T10:57:39;28.50;79.60
15546;DHT22;7874;48.870;11.074;2023-06-10T11:00:07;28.20;80.50
15546;DHT22;7874;48.870;11.074;2023-06-10T11:02:41;28.00;81.30
15546;DHT22;7874;48.870;11.074;2023-06-10T11:05:10;27.90;81.30
15546;DHT22;7874;48.870;11.074;2023-06-10T11:07:38;27.80;81.20
15546;DHT22;7874;48.870;11.074;2023-06-10T11:10:09;27.90;81.30
15546;DHT22;7874;48.870;11.074;2023-06-10T11:12:51;28.00;82.90
15546;DHT22;7874;48.870;11.074;2023-06-10T11:15:20;28.10;82.30
15546;DHT22;7874;48.870;11.074;2023-06-10T11:18:06;27.90;81.80
15546;DHT22;7874;48.870;11.074;2023-06-10T11:20:43;28.40;82.20
15546;DHT22;7874;48.870;11.074;2023-06-10T11:26:16;29.20;80.00
15546;DHT22;7874;48.870;11.074;2023-06-10T11:29:05;28.70;79.60
15546;DHT22;7874;48.870;11.074;2023-06-10T11:31:41;28.80;80.40
15546;DHT22;7874;48.870;11.074;2023-06-10T11:34:09;28.70;81.30
15546;DHT22;7874;48.870;11.074;2023-06-10T11:36:38;28.20;81.40
15546;DHT22;7874;48.870;11.074;2023-06-10T11:39:10;27.80;81.90
15546;DHT22;7874;48.870;11.074;2023-06-10T11:41:38;27.30;81.20
15546;DHT22;7874;48.870;11.074;2023-06-10T11:46:23;26.90;82.80
15546;DHT22;7874;48.870;11.074;2023-06-10T11:48:52;26.80;83.70
15546;DHT22;7874;48.870;11.074;2023-06-10T11:51:20;26.70;85.20
15546;DHT22;7874;48.870;11.074;2023-06-10T11:53:48;26.80;85.30
15546;DHT22;7874;48.870;11.074;2023-06-10T11:56:19;27.20;86.60
15546;DHT22;7874;48.870;11.074;2023-06-10T11:58:52;27.40;85.20
15546;DHT22;7874;48.870;11.074;2023-06-10T12:01:20;29.20;83.20
15546;DHT22;7874;48.870;11.074;2023-06-10T12:03:56;31.10;80.80
15546;DHT22;7874;48.870;11.074;2023-06-10T12:06:23;31.00;77.80
15546;DHT22;7874;48.870;11.074;2023-06-10T12:08:50;31.70;78.50
15546;DHT22;7874;48.870;11.074;2023-06-10T12:11:17;32.60;76.30
15546;DHT22;7874;48.870;11.074;2023-06-10T12:13:48;31.90;78.60
15546;DHT22;7874;48.870;11.074;2023-06-10T12:16:15;29.30;78.80
15546;DHT22;7874;48.870;11.074;2023-06-10T12:18:44;28.30;80.90
15546;DHT22;7874;48.870;11.074;2023-06-10T12:21:26;27.40;82.60
15546;DHT22;7874;48.870;11.074;2023-06-10T12:24:03;27.20;83.40
15546;DHT22;7874;48.870;11.074;2023-06-10T12:26:39;26.60;84.80
15546;DHT22;7874;48.870;11.074;2023-06-10T12:29:27;26.60;85.60
15546;DHT22;7874;48.870;11.074;2023-06-10T12:31:59;26.70;85.20
15546;DHT22;7874;48.870;11.074;2023-06-10T12:34:30;26.70;85.30
15546;DHT22;7874;48.870;11.074;2023-06-10T12:36:59;27.90;83.40
15546;DHT22;7874;48.870;11.074;2023-06-10T12:39:26;27.90;84.40
15546;DHT22;7874;48.870;11.074;2023-06-10T12:41:53;29.30;81.90
15546;DHT22;7874;48.870;11.074;2023-06-10T12:44:29;30.30;79.40
15546;DHT22;7874;48.870;11.074;2023-06-10T12:46:56;29.70;79.60
15546;DHT22;7874;48.870;11.074;2023-06-10T12:49:22;29.80;79.80
15546;DHT22;7874;48.870;11.074;2023-06-10T12:51:49;31.00;79.70
15546;DHT22;7874;48.870;11.074;2023-06-10T12:54:17;30.50;79.70
15546;DHT22;7874;48.870;11.074;2023-06-10T12:56:44;30.20;78.90
15546;DHT22;7874;48.870;11.074;2023-06-10T12:59:11;29.80;78.90
15546;DHT22;7874;48.870;11.074;2023-06-10T13:01:38;28.50;81.00
15546;DHT22;7874;48.870;11.074;2023-06-10T13:04:05;29.40;81.60
15546;DHT22;7874;48.870;11.074;2023-06-10T13:06:33;30.00;79.50
15546;DHT22;7874;48.870;11.074;2023-06-10T13:09:02;29.10;79.90
15546;DHT22;7874;48.870;11.074;2023-06-10T13:11:30;28.10;81.40
15546;DHT22;7874;48.870;11.074;2023-06-10T13:13:57;28.00;82.70
15546;DHT22;7874;48.870;11.074;2023-06-10T13:16:25;28.60;82.20
15546;DHT22;7874;48.870;11.074;2023-06-10T13:18:53;29.90;79.50
15546;DHT22;7874;48.870;11.074;2023-06-10T13:21:20;30.10;78.90
15546;DHT22;7874;48.870;11.074;2023-06-10T13:23:47;30.00;79.30
15546;DHT22;7874;48.870;11.074;2023-06-10T13:26:14;29.10;79.70
15546;DHT22;7874;48.870;11.074;2023-06-10T13:28:43;28.00;82.00
15546;DHT22;7874;48.870;11.074;2023-06-10T13:31:10;27.00;83.50
15546;DHT22;7874;48.870;11.074;2023-06-10T13:33:37;26.60;84.40
15546;DHT22;7874;48.870;11.074;2023-06-10T13:36:04;27.00;83.80
15546;DHT22;7874;48.870;11.074;2023-06-10T13:38:31;27.10;83.20
15546;DHT22;7874;48.870;11.074;2023-06-10T13:40:58;27.20;84.00
15546;DHT22;7874;48.870;11.074;2023-06-10T13:43:25;27.50;84.50
15546;DHT22;7874;48.870;11.074;2023-06-10T13:45:53;27.30;83.50
15546;DHT22;7874;48.870;11.074;2023-06-10T13:48:20;27.20;83.80
15546;DHT22;7874;48.870;11.074;2023-06-10T13:50:47;26.90;84.20
15546;DHT22;7874;48.870;11.074;2023-06-10T13:53:14;26.70;84.80
15546;DHT22;7874;48.870;11.074;2023-06-10T13:55:41;27.00;83.70
15546;DHT22;7874;48.870;11.074;2023-06-10T13:58:08;27.60;84.10
15546;DHT22;7874;48.870;11.074;2023-06-10T14:00:35;29.00;81.50
15546;DHT22;7874;48.870;11.074;2023-06-10T14:03:03;29.40;80.40
15546;DHT22;7874;48.870;11.074;2023-06-10T14:05:30;29.40;80.00
15546;DHT22;7874;48.870;11.074;2023-06-10T14:07:58;29.10;79.90
15546;DHT22;7874;48.870;11.074;2023-06-10T14:10:25;28.70;80.40
15546;DHT22;7874;48.870;11.074;2023-06-10T14:12:52;27.80;81.00
15546;DHT22;7874;48.870;11.074;2023-06-10T14:15:19;27.60;82.30
15546;DHT22;7874;48.870;11.074;2023-06-10T14:17:46;27.50;81.40
15546;DHT22;7874;48.870;11.074;2023-06-10T14:20:14;27.40;81.90
15546;DHT22;7874;48.870;11.074;2023-06-10T14:22:41;27.10;81.60
15546;DHT22;7874;48.870;11.074;2023-06-10T14:25:08;27.10;83.20
15546;DHT22;7874;48.870;11.074;2023-06-10T14:27:36;27.00;84.30
15546;DHT22;7874;48.870;11.074;2023-06-10T14:30:04;26.70;83.30
15546;DHT22;7874;48.870;11.074;2023-06-10T14:32:31;26.70;84.90
15546;DHT22;7874;48.870;11.074;2023-06-10T14:35:08;26.80;84.70
15546;DHT22;7874;48.870;11.074;2023-06-10T14:37:35;27.00;83.90
15546;DHT22;7874;48.870;11.074;2023-06-10T14:40:02;27.20;83.00
15546;DHT22;7874;48.870;11.074;2023-06-10T14:42:30;27.30;83.10
15546;DHT22;7874;48.870;11.074;2023-06-10T14:44:57;26.90;82.70
15546;DHT22;7874;48.870;11.074;2023-06-10T14:47:24;26.60;83.70
15546;DHT22;7874;48.870;11.074;2023-06-10T14:49:51;26.70;84.20
15546;DHT22;7874;48.870;11.074;2023-06-10T14:52:19;26.80;83.40
15546;DHT22;7874;48.870;11.074;2023-06-10T14:54:46;26.50;83.60
15546;DHT22;7874;48.870;11.074;2023-06-10T14:57:13;26.30;83.70
15546;DHT22;7874;48.870;11.074;2023-06-10T14:59:40;26.10;84.40
15546;DHT22;7874;48.870;11.074;2023-06-10T15:02:07;25.80;84.80
15546;DHT22;7874;48.870;11.074;2023-06-10T15:04:34;25.80;84.80
15546;DHT22;7874;48.870;11.074;2023-06-10T15:07:00;25.70;85.30
15546;DHT22;7874;48.870;11.074;2023-06-10T15:09:29;25.70;85.70
15546;DHT22;7874;48.870;11.074;2023-06-10T15:11:57;25.50;86.90
15546;DHT22;7874;48.870;11.074;2023-06-10T15:14:24;25.60;86.40
15546;DHT22;7874;48.870;11.074;2023-06-10T15:16:52;25.70;85.60
15546;DHT22;7874;48.870;11.074;2023-06-10T15:19:19;25.70;85.40
15546;DHT22;7874;48.870;11.074;2023-06-10T15:21:46;25.70;82.20
15546;DHT22;7874;48.870;11.074;2023-06-10T15:24:12;25.70;82.50
15546;DHT22;7874;48.870;11.074;2023-06-10T15:26:40;25.80;83.20
15546;DHT22;7874;48.870;11.074;2023-06-10T15:29:07;25.80;83.30
15546;DHT22;7874;48.870;11.074;2023-06-10T15:31:34;25.80;83.20
15546;DHT22;7874;48.870;11.074;2023-06-10T15:34:02;25.50;84.20
15546;DHT22;7874;48.870;11.074;2023-06-10T15:36:29;25.50;84.40
15546;DHT22;7874;48.870;11.074;2023-06-10T15:39:01;25.60;85.20
15546;DHT22;7874;48.870;11.074;2023-06-10T15:41:28;25.50;84.40
15546;DHT22;7874;48.870;11.074;2023-06-10T15:43:57;25.30;84.50
15546;DHT22;7874;48.870;11.074;2023-06-10T15:46:25;25.20;85.90
15546;DHT22;7874;48.870;11.074;2023-06-10T15:48:52;25.20;85.40
15546;DHT22;7874;48.870;11.074;2023-06-10T15:51:20;25.20;86.30
15546;DHT22;7874;48.870;11.074;2023-06-10T15:53:46;25.20;85.70
15546;DHT22;7874;48.870;11.074;2023-06-10T15:56:13;25.40;85.70
15546;DHT22;7874;48.870;11.074;2023-06-10T15:58:40;25.30;85.90
15546;DHT22;7874;48.870;11.074;2023-06-10T16:01:08;25.20;85.90
15546;DHT22;7874;48.870;11.074;2023-06-10T16:03:36;25.50;85.50
15546;DHT22;7874;48.870;11.074;2023-06-10T16:06:04;25.60;84.60
15546;DHT22;7874;48.870;11.074;2023-06-10T16:08:30;25.90;85.00
15546;DHT22;7874;48.870;11.074;2023-06-10T16:10:57;25.80;84.20
15546;DHT22;7874;48.870;11.074;2023-06-10T16:13:24;25.50;87.80
15546;DHT22;7874;48.870;11.074;2023-06-10T16:15:51;25.20;89.30
15546;DHT22;7874;48.870;11.074;2023-06-10T16:18:19;24.90;90.20
15546;DHT22;7874;48.870;11.074;2023-06-10T16:20:46;24.50;90.70
15546;DHT22;7874;48.870;11.074;2023-06-10T16:23:13;24.50;90.60
15546;DHT22;7874;48.870;11.074;2023-06-10T16:25:40;24.30;90.80
15546;DHT22;7874;48.870;11.074;2023-06-10T16:28:07;24.00;91.10
15546;DHT22;7874;48.870;11.074;2023-06-10T16:30:34;23.90;91.90
15546;DHT22;7874;48.870;11.074;2023-06-10T16:33:01;24.00;91.70
15546;DHT22;7874;48.870;11.074;2023-06-10T16:35:29;24.00;91.70
15546;DHT22;7874;48.870;11.074;2023-06-10T16:37:56;24.20;91.60
15546;DHT22;7874;48.870;11.074;2023-06-10T16:40:25;24.00;91.30
15546;DHT22;7874;48.870;11.074;2023-06-10T16:42:52;24.20;91.30
15546;DHT22;7874;48.870;11.074;2023-06-10T16:45:19;24.30;91.80
15546;DHT22;7874;48.870;11.074;2023-06-10T16:47:46;24.20;91.70
15546;DHT22;7874;48.870;11.074;2023-06-10T16:50:13;24.20;91.70
15546;DHT22;7874;48.870;11.074;2023-06-10T16:52:41;24.10;91.80
15546;DHT22;7874;48.870;11.074;2023-06-10T16:55:08;24.10;92.10
15546;DHT22;7874;48.870;11.074;2023-06-10T16:57:35;24.20;92.10
15546;DHT22;7874;48.870;11.074;2023-06-10T17:00:02;24.30;92.10
15546;DHT22;7874;48.870;11.074;2023-06-10T17:02:29;24.20;92.70
15546;DHT22;7874;48.870;11.074;2023-06-10T17:04:57;24.10;92.40
15546;DHT22;7874;48.870;11.074;2023-06-10T17:07:24;23.70;93.00
15546;DHT22;7874;48.870;11.074;2023-06-10T17:09:52;23.70;93.10
15546;DHT22;7874;48.870;11.074;2023-06-10T17:12:19;23.70;93.10
15546;DHT22;7874;48.870;11.074;2023-06-10T17:14:46;23.60;93.50
15546;DHT22;7874;48.870;11.074;2023-06-10T17:17:13;23.60;93.60
15546;DHT22;7874;48.870;11.074;2023-06-10T17:19:40;23.60;93.80
15546;DHT22;7874;48.870;11.074;2023-06-10T17:23:53;23.40;94.20
15546;DHT22;7874;48.870;11.074;2023-06-10T17:26:20;23.50;94.50
15546;DHT22;7874;48.870;11.074;2023-06-10T17:28:47;23.50;94.60
15546;DHT22;7874;48.870;11.074;2023-06-10T17:31:14;23.40;94.90
15546;DHT22;7874;48.870;11.074;2023-06-10T17:33:41;23.20;94.90
15546;DHT22;7874;48.870;11.074;2023-06-10T17:36:07;23.30;95.20
15546;DHT22;7874;48.870;11.074;2023-06-10T17:38:34;23.40;95.40
15546;DHT22;7874;48.870;11.074;2023-06-10T17:41:02;23.30;95.20
15546;DHT22;7874;48.870;11.074;2023-06-10T17:43:29;23.30;95.10
15546;DHT22;7874;48.870;11.074;2023-06-10T17:45:56;23.30;95.50
15546;DHT22;7874;48.870;11.074;2023-06-10T17:48:23;23.20;95.50
15546;DHT22;7874;48.870;11.074;2023-06-10T17:50:50;23.20;95.30
15546;DHT22;7874;48.870;11.074;2023-06-10T17:53:17;23.00;95.80
15546;DHT22;7874;48.870;11.074;2023-06-10T17:55:44;22.90;95.90
15546;DHT22;7874;48.870;11.074;2023-06-10T17:58:12;23.00;96.10
15546;DHT22;7874;48.870;11.074;2023-06-10T18:00:39;23.10;95.80
15546;DHT22;7874;48.870;11.074;2023-06-10T18:03:06;23.00;95.80
15546;DHT22;7874;48.870;11.074;2023-06-10T18:05:33;23.00;96.10
15546;DHT22;7874;48.870;11.074;2023-06-10T18:08:00;23.00;96.20
15546;DHT22;7874;48.870;11.074;2023-06-10T18:10:26;23.10;96.40
15546;DHT22;7874;48.870;11.074;2023-06-10T18:12:53;23.00;96.20
15546;DHT22;7874;48.870;11.074;2023-06-10T18:15:22;22.90;96.30
15546;DHT22;7874;48.870;11.074;2023-06-10T18:17:48;22.80;96.40
15546;DHT22;7874;48.870;11.074;2023-06-10T18:20:15;22.80;96.40
15546;DHT22;7874;48.870;11.074;2023-06-10T18:22:42;22.80;96.80
15546;DHT22;7874;48.870;11.074;2023-06-10T18:25:09;22.70;97.00
15546;DHT22;7874;48.870;11.074;2023-06-10T18:27:36;22.60;97.20
15546;DHT22;7874;48.870;11.074;2023-06-10T18:30:03;22.60;97.40
15546;DHT22;7874;48.870;11.074;2023-06-10T18:32:32;22.60;97.70
15546;DHT22;7874;48.870;11.074;2023-06-10T18:34:58;22.40;98.00
15546;DHT22;7874;48.870;11.074;2023-06-10T18:37:25;22.40;98.20
15546;DHT22;7874;48.870;11.074;2023-06-10T18:39:52;22.40;98.20
15546;DHT22;7874;48.870;11.074;2023-06-10T18:42:19;22.40;98.50
15546;DHT22;7874;48.870;11.074;2023-06-10T18:44:46;22.30;98.50
15546;DHT22;7874;48.870;11.074;2023-06-10T18:47:13;22.30;98.80
15546;DHT22;7874;48.870;11.074;2023-06-10T18:49:41;22.20;98.80
15546;DHT22;7874;48.870;11.074;2023-06-10T18:52:08;22.20;98.60
15546;DHT22;7874;48.870;11.074;2023-06-10T18:54:35;22.20;98.60
15546;DHT22;7874;48.870;11.074;2023-06-10T18:57:02;22.20;98.80
15546;DHT22;7874;48.870;11.074;2023-06-10T18:59:28;22.00;98.90
15546;DHT22;7874;48.870;11.074;2023-06-10T19:01:55;22.00;99.10
15546;DHT22;7874;48.870;11.074;2023-06-10T19:04:22;22.00;99.00
15546;DHT22;7874;48.870;11.074;2023-06-10T19:06:51;22.00;98.70
15546;DHT22;7874;48.870;11.074;2023-06-10T19:09:17;21.90;99.30
15546;DHT22;7874;48.870;11.074;2023-06-10T19:11:44;21.90;99.40
15546;DHT22;7874;48.870;11.074;2023-06-10T19:14:11;21.90;99.70
15546;DHT22;7874;48.870;11.074;2023-06-10T19:16:38;21.80;99.90
15546;DHT22;7874;48.870;11.074;2023-06-10T19:19:05;21.90;99.90
15546;DHT22;7874;48.870;11.074;2023-06-10T19:21:32;21.80;99.90
15546;DHT22;7874;48.870;11.074;2023-06-10T19:24:00;21.70;99.90
15546;DHT22;7874;48.870;11.074;2023-06-10T19:26:28;21.70;99.90
15546;DHT22;7874;48.870;11.074;2023-06-10T19:28:55;21.60;99.60
15546;DHT22;7874;48.870;11.074;2023-06-10T19:31:22;21.60;99.40
15546;DHT22;7874;48.870;11.074;2023-06-10T19:33:49;21.50;99.50
15546;DHT22;7874;48.870;11.074;2023-06-10T19:36:16;21.40;99.30
15546;DHT22;7874;48.870;11.074;2023-06-10T19:38:43;21.40;99.50
15546;DHT22;7874;48.870;11.074;2023-06-10T19:41:11;21.30;99.90
15546;DHT22;7874;48.870;11.074;2023-06-10T19:43:39;21.30;99.90
15546;DHT22;7874;48.870;11.074;2023-06-10T19:46:07;21.30;99.60
15546;DHT22;7874;48.870;11.074;2023-06-10T19:48:35;21.10;99.90
15546;DHT22;7874;48.870;11.074;2023-06-10T19:51:02;21.10;99.70
15546;DHT22;7874;48.870;11.074;2023-06-10T19:53:29;21.10;99.90
15546;DHT22;7874;48.870;11.074;2023-06-10T19:55:57;21.10;99.90
15546;DHT22;7874;48.870;11.074;2023-06-10T19:58:25;21.10;99.40
15546;DHT22;7874;48.870;11.074;2023-06-10T20:00:52;21.10;99.80
15546;DHT22;7874;48.870;11.074;2023-06-10T20:03:21;21.00;99.90
15546;DHT22;7874;48.870;11.074;2023-06-10T20:05:48;20.90;99.70
15546;DHT22;7874;48.870;11.074;2023-06-10T20:08:18;20.90;99.90
15546;DHT22;7874;48.870;11.074;2023-06-10T20:12:44;20.80;99.70
15546;DHT22;7874;48.870;11.074;2023-06-10T20:15:12;20.70;99.20
15546;DHT22;7874;48.870;11.074;2023-06-10T20:17:41;20.70;99.70
15546;DHT22;7874;48.870;11.074;2023-06-10T20:20:15;20.50;99.50
15546;DHT22;7874;48.870;11.074;2023-06-10T20:22:58;20.50;99.70
15546;DHT22;7874;48.870;11.074;2023-06-10T20:25:41;20.50;99.90
15546;DHT22;7874;48.870;11.074;2023-06-10T20:28:14;20.40;99.90
15546;DHT22;7874;48.870;11.074;2023-06-10T20:31:01;20.40;99.90
15546;DHT22;7874;48.870;11.074;2023-06-10T20:33:52;20.40;99.90
15546;DHT22;7874;48.870;11.074;2023-06-10T20:36:51;20.40;99.90
15546;DHT22;7874;48.870;11.074;2023-06-10T20:39:33;20.20;99.90
15546;DHT22;7874;48.870;11.074;2023-06-10T20:42:28;20.20;99.90
15546;DHT22;7874;48.870;11.074;2023-06-10T20:45:12;20.30;99.90
15546;DHT22;7874;48.870;11.074;2023-06-10T20:47:53;20.20;99.90
15546;DHT22;7874;48.870;11.074;2023-06-10T20:50:32;20.10;99.90
15546;DHT22;7874;48.870;11.074;2023-06-10T20:53:01;20.00;99.90
15546;DHT22;7874;48.870;11.074;2023-06-10T20:55:42;20.00;99.90
15546;DHT22;7874;48.870;11.074;2023-06-10T20:58:09;20.00;99.70
15546;DHT22;7874;48.870;11.074;2023-06-10T21:07:25;19.90;99.60
15546;DHT22;7874;48.870;11.074;2023-06-10T21:09:53;19.80;99.50
15546;DHT22;7874;48.870;11.074;2023-06-10T21:12:20;19.70;99.60
15546;DHT22;7874;48.870;11.074;2023-06-10T21:15:03;19.70;99.20
15546;DHT22;7874;48.870;11.074;2023-06-10T21:17:46;19.70;99.70
15546;DHT22;7874;48.870;11.074;2023-06-10T21:20:27;19.70;99.70
15546;DHT22;7874;48.870;11.074;2023-06-10T21:22:57;19.60;99.90
15546;DHT22;7874;48.870;11.074;2023-06-10T21:25:38;19.50;99.90
15546;DHT22;7874;48.870;11.074;2023-06-10T21:28:20;19.50;99.90
15546;DHT22;7874;48.870;11.074;2023-06-10T21:31:11;19.40;99.90
15546;DHT22;7874;48.870;11.074;2023-06-10T21:33:42;19.40;99.90
15546;DHT22;7874;48.870;11.074;2023-06-10T21:36:14;19.30;99.90
15546;DHT22;7874;48.870;11.074;2023-06-10T21:42:24;19.20;99.90
15546;DHT22;7874;48.870;11.074;2023-06-10T21:44:56;19.20;99.90
15546;DHT22;7874;48.870;11.074;2023-06-10T21:47:37;19.30;99.90
15546;DHT22;7874;48.870;11.074;2023-06-10T21:50:18;19.30;99.90
15546;DHT22;7874;48.870;11.074;2023-06-10T21:52:59;19.20;99.90
15546;DHT22;7874;48.870;11.074;2023-06-10T21:55:26;19.10;99.90
15546;DHT22;7874;48.870;11.074;2023-06-10T21:58:11;19.00;99.90
15546;DHT22;7874;48.870;11.074;2023-06-10T22:00:45;18.90;99.90
15546;DHT22;7874;48.870;11.074;2023-06-10T22:03:13;18.90;99.90
15546;DHT22;7874;48.870;11.074;2023-06-10T22:05:47;19.00;99.90
15546;DHT22;7874;48.870;11.074;2023-06-10T22:08:29;18.80;99.90
15546;DHT22;7874;48.870;11.074;2023-06-10T22:10:57;18.80;99.90
15546;DHT22;7874;48.870;11.074;2023-06-10T22:13:43;18.80;99.90
15546;DHT22;7874;48.870;11.074;2023-06-10T22:16:27;18.90;99.90
15546;DHT22;7874;48.870;11.074;2023-06-10T22:19:08;18.80;99.90
15546;DHT22;7874;48.870;11.074;2023-06-10T22:21:49;18.70;99.90
15546;DHT22;7874;48.870;11.074;2023-06-10T22:24:20;18.60;99.90
15546;DHT22;7874;48.870;11.074;2023-06-10T22:27:03;18.60;99.90
15546;DHT22;7874;48.870;11.074;2023-06-10T22:29:39;18.60;99.90
15546;DHT22;7874;48.870;11.074;2023-06-10T22:32:07;18.60;99.90
15546;DHT22;7874;48.870;11.074;2023-06-10T22:34:38;18.70;99.90
15546;DHT22;7874;48.870;11.074;2023-06-10T22:37:06;18.60;99.90
15546;DHT22;7874;48.870;11.074;2023-06-10T22:39:40;18.50;99.90